sensor_id;sensor_type;location;lat;lon;timestamp;pressure;altitude;pressure_sealevel;temperature;humidity
43701;BME280;58809;47.984;7.964;2023-04-09T00:01:07;97748.63;;;11.17;58.29
43701;BME280;58809;47.984;7.964;2023-04-09T00:04:09;97748.50;;;11.10;58.09
43701;BME280;58809;47.984;7.964;2023-04-09T00:07:10;97747.53;;;10.95;58.22
43701;BME280;58809;47.984;7.964;2023-04-09T00:10:12;97741.97;;;10.82;58.51
43701;BME280;58809;47.984;7.964;2023-04-09T00:13:13;97746.44;;;10.73;59.22
43701;BME280;58809;47.984;7.964;2023-04-09T00:16:20;97747.13;;;10.67;58.49
43701;BME280;58809;47.984;7.964;2023-04-09T00:19:22;97742.69;;;10.59;58.73
43701;BME280;58809;47.984;7.964;2023-04-09T00:22:23;97735.88;;;10.56;59.50
43701;BME280;58809;47.984;7.964;2023-04-09T00:25:25;97742.19;;;10.55;59.32
43701;BME280;58809;47.984;7.964;2023-04-09T00:28:26;97742.84;;;10.49;59.27
43701;BME280;58809;47.984;7.964;2023-04-09T00:31:28;97741.66;;;10.27;59.02
43701;BME280;58809;47.984;7.964;2023-04-09T00:34:30;97744.47;;;10.17;59.32
43701;BME280;58809;47.984;7.964;2023-04-09T00:37:31;97743.81;;;10.07;59.55
43701;BME280;58809;47.984;7.964;2023-04-09T00:40:33;97744.78;;;9.98;59.31
43701;BME280;58809;47.984;7.964;2023-04-09T00:43:34;97741.97;;;9.83;59.74
43701;BME280;58809;47.984;7.964;2023-04-09T00:46:36;97746.31;;;10.50;58.43
43701;BME280;58809;47.984;7.964;2023-04-09T00:49:38;97742.47;;;10.69;57.40
43701;BME280;58809;47.984;7.964;2023-04-09T00:52:39;97741.50;;;10.70;57.02
43701;BME280;58809;47.984;7.964;2023-04-09T00:55:41;97747.28;;;10.65;57.36
43701;BME280;58809;47.984;7.964;2023-04-09T00:58:43;97747.44;;;10.64;57.07
43701;BME280;58809;47.984;7.964;2023-04-09T01:01:44;97737.03;;;10.62;57.58
43701;BME280;58809;47.984;7.964;2023-04-09T01:04:46;97740.03;;;10.59;57.52
43701;BME280;58809;47.984;7.964;2023-04-09T01:14:54;97736.38;;;10.68;57.08
43701;BME280;58809;47.984;7.964;2023-04-09T01:21:29;97726.44;;;10.62;57.15
43701;BME280;58809;47.984;7.964;2023-04-09T01:24:57;97726.63;;;10.61;56.46
43701;BME280;58809;47.984;7.964;2023-04-09T01:28:18;97722.03;;;10.46;56.69
43701;BME280;58809;47.984;7.964;2023-04-09T01:31:31;97712.09;;;10.40;57.35
43701;BME280;58809;47.984;7.964;2023-04-09T01:34:34;97719.72;;;10.35;57.59
43701;BME280;58809;47.984;7.964;2023-04-09T01:37:37;97722.00;;;10.38;57.48
43701;BME280;58809;47.984;7.964;2023-04-09T01:40:41;97719.22;;;10.48;57.28
43701;BME280;58809;47.984;7.964;2023-04-09T01:43:44;97719.38;;;10.46;57.55
43701;BME280;58809;47.984;7.964;2023-04-09T01:46:46;97719.03;;;10.41;57.42
43701;BME280;58809;47.984;7.964;2023-04-09T01:49:49;97721.69;;;10.33;56.89
43701;BME280;58809;47.984;7.964;2023-04-09T01:52:52;97715.56;;;10.32;57.54
43701;BME280;58809;47.984;7.964;2023-04-09T01:55:54;97722.38;;;10.35;57.25
43701;BME280;58809;47.984;7.964;2023-04-09T01:58:56;97730.63;;;10.32;57.62
43701;BME280;58809;47.984;7.964;2023-04-09T02:02:08;97729.63;;;10.33;57.05
43701;BME280;58809;47.984;7.964;2023-04-09T02:05:14;97724.00;;;10.61;56.52
43701;BME280;58809;47.984;7.964;2023-04-09T02:08:20;97726.94;;;10.66;56.01
43701;BME280;58809;47.984;7.964;2023-04-09T02:11:22;97727.63;;;10.43;56.28
43701;BME280;58809;47.984;7.964;2023-04-09T02:14:24;97722.50;;;10.42;56.46
43701;BME280;58809;47.984;7.964;2023-04-09T02:17:26;97730.59;;;10.40;56.79
43701;BME280;58809;47.984;7.964;2023-04-09T02:20:28;97723.03;;;10.37;56.92
43701;BME280;58809;47.984;7.964;2023-04-09T02:23:30;97724.31;;;10.33;56.41
43701;BME280;58809;47.984;7.964;2023-04-09T02:26:33;97723.66;;;10.31;56.07
43701;BME280;58809;47.984;7.964;2023-04-09T02:29:34;97716.69;;;10.21;56.61
43701;BME280;58809;47.984;7.964;2023-04-09T02:32:36;97726.81;;;10.10;57.02
43701;BME280;58809;47.984;7.964;2023-04-09T02:35:38;97729.59;;;10.08;57.00
43701;BME280;58809;47.984;7.964;2023-04-09T02:38:40;97727.13;;;10.15;56.89
43701;BME280;58809;47.984;7.964;2023-04-09T02:41:42;97731.59;;;10.06;56.82
43701;BME280;58809;47.984;7.964;2023-04-09T02:44:44;97736.88;;;10.06;56.83
43701;BME280;58809;47.984;7.964;2023-04-09T02:47:47;97735.38;;;10.12;56.65
43701;BME280;58809;47.984;7.964;2023-04-09T02:50:48;97729.59;;;10.08;57.02
43701;BME280;58809;47.984;7.964;2023-04-09T02:53:50;97727.94;;;9.82;56.59
43701;BME280;58809;47.984;7.964;2023-04-09T02:56:51;97726.69;;;9.44;58.13
43701;BME280;58809;47.984;7.964;2023-04-09T02:59:53;97728.53;;;9.52;57.85
43701;BME280;58809;47.984;7.964;2023-04-09T03:02:55;97734.00;;;9.58;57.97
43701;BME280;58809;47.984;7.964;2023-04-09T03:05:56;97720.28;;;9.55;57.36
43701;BME280;58809;47.984;7.964;2023-04-09T03:08:58;97727.72;;;9.51;57.98
43701;BME280;58809;47.984;7.964;2023-04-09T03:11:59;97733.50;;;9.55;57.58
43701;BME280;58809;47.984;7.964;2023-04-09T03:15:02;97721.25;;;9.46;57.41
43701;BME280;58809;47.984;7.964;2023-04-09T03:18:04;97721.88;;;9.39;57.23
43701;BME280;58809;47.984;7.964;2023-04-09T03:21:06;97719.88;;;9.25;57.67
43701;BME280;58809;47.984;7.964;2023-04-09T03:24:11;97717.56;;;9.22;57.38
43701;BME280;58809;47.984;7.964;2023-04-09T03:27:13;97720.84;;;9.24;58.01
43701;BME280;58809;47.984;7.964;2023-04-09T03:30:15;97720.97;;;9.73;56.26
43701;BME280;58809;47.984;7.964;2023-04-09T03:33:18;97724.31;;;9.92;55.80
43701;BME280;58809;47.984;7.964;2023-04-09T03:36:28;97722.66;;;9.82;56.22
43701;BME280;58809;47.984;7.964;2023-04-09T03:39:43;97709.91;;;9.70;56.33
43701;BME280;58809;47.984;7.964;2023-04-09T03:42:44;97714.84;;;9.56;56.37
43701;BME280;58809;47.984;7.964;2023-04-09T03:45:49;97723.91;;;9.54;56.50
43701;BME280;58809;47.984;7.964;2023-04-09T03:48:56;97718.16;;;9.67;56.16
43701;BME280;58809;47.984;7.964;2023-04-09T03:52:05;97720.00;;;9.82;55.82
43701;BME280;58809;47.984;7.964;2023-04-09T03:55:11;97717.03;;;9.86;55.36
43701;BME280;58809;47.984;7.964;2023-04-09T03:58:13;97713.56;;;9.85;55.30
43701;BME280;58809;47.984;7.964;2023-04-09T04:01:15;97719.50;;;9.87;55.74
43701;BME280;58809;47.984;7.964;2023-04-09T04:04:27;97725.28;;;9.91;55.80
43701;BME280;58809;47.984;7.964;2023-04-09T04:07:31;97719.03;;;9.92;55.67
43701;BME280;58809;47.984;7.964;2023-04-09T04:10:39;97720.50;;;9.86;55.89
43701;BME280;58809;47.984;7.964;2023-04-09T04:13:41;97716.38;;;9.92;55.63
43701;BME280;58809;47.984;7.964;2023-04-09T04:16:43;97718.53;;;9.88;55.07
43701;BME280;58809;47.984;7.964;2023-04-09T04:19:49;97724.97;;;9.86;55.38
43701;BME280;58809;47.984;7.964;2023-04-09T04:22:51;97722.81;;;9.81;55.45
43701;BME280;58809;47.984;7.964;2023-04-09T04:25:52;97721.81;;;9.74;55.26
43701;BME280;58809;47.984;7.964;2023-04-09T04:29:01;97716.34;;;9.67;55.52
43701;BME280;58809;47.984;7.964;2023-04-09T04:32:20;97726.59;;;9.70;55.48
43701;BME280;58809;47.984;7.964;2023-04-09T04:35:22;97732.38;;;9.74;55.29
43701;BME280;58809;47.984;7.964;2023-04-09T04:38:27;97730.22;;;9.69;55.52
43701;BME280;58809;47.984;7.964;2023-04-09T04:41:30;97733.81;;;9.52;55.64
43701;BME280;58809;47.984;7.964;2023-04-09T04:44:43;97734.63;;;9.44;55.96
43701;BME280;58809;47.984;7.964;2023-04-09T04:47:54;97743.72;;;9.41;56.00
43701;BME280;58809;47.984;7.964;2023-04-09T04:50:58;97739.41;;;9.40;56.11
43701;BME280;58809;47.984;7.964;2023-04-09T04:54:05;97740.88;;;9.43;56.06
43701;BME280;58809;47.984;7.964;2023-04-09T04:57:07;97744.31;;;9.27;56.24
43701;BME280;58809;47.984;7.964;2023-04-09T05:00:13;97741.25;;;9.14;56.42
43701;BME280;58809;47.984;7.964;2023-04-09T05:03:15;97744.78;;;9.22;56.82
43701;BME280;58809;47.984;7.964;2023-04-09T05:06:34;97739.88;;;9.36;56.31
43701;BME280;58809;47.984;7.964;2023-04-09T05:09:40;97733.16;;;9.50;56.35
43701;BME280;58809;47.984;7.964;2023-04-09T05:12:43;97736.16;;;9.63;56.02
43701;BME280;58809;47.984;7.964;2023-04-09T05:15:47;97739.28;;;9.67;55.68
43701;BME280;58809;47.984;7.964;2023-04-09T05:18:49;97743.44;;;9.77;56.19
43701;BME280;58809;47.984;7.964;2023-04-09T05:21:51;97735.03;;;9.82;55.74
43701;BME280;58809;47.984;7.964;2023-04-09T05:24:55;97735.88;;;9.99;55.74
43701;BME280;58809;47.984;7.964;2023-04-09T05:27:58;97740.53;;;10.13;55.49
43701;BME280;58809;47.984;7.964;2023-04-09T05:30:59;97743.81;;;10.24;55.50
43701;BME280;58809;47.984;7.964;2023-04-09T05:34:03;97745.28;;;10.18;55.42
43701;BME280;58809;47.984;7.964;2023-04-09T05:37:13;97748.78;;;10.27;55.05
43701;BME280;58809;47.984;7.964;2023-04-09T05:40:18;97753.91;;;10.28;55.54
43701;BME280;58809;47.984;7.964;2023-04-09T05:43:20;97745.50;;;10.33;55.32
43701;BME280;58809;47.984;7.964;2023-04-09T05:46:22;97747.50;;;10.39;55.53
43701;BME280;58809;47.984;7.964;2023-04-09T05:49:24;97747.31;;;10.49;55.17
43701;BME280;58809;47.984;7.964;2023-04-09T05:52:28;97753.59;;;10.64;55.35
43701;BME280;58809;47.984;7.964;2023-04-09T05:55:30;97753.56;;;10.72;55.28
43701;BME280;58809;47.984;7.964;2023-04-09T05:58:34;97750.38;;;10.85;54.41
43701;BME280;58809;47.984;7.964;2023-04-09T06:01:36;97758.13;;;11.03;54.50
43701;BME280;58809;47.984;7.964;2023-04-09T06:04:38;97756.06;;;11.22;54.20
43701;BME280;58809;47.984;7.964;2023-04-09T06:07:39;97752.94;;;11.18;54.33
43701;BME280;58809;47.984;7.964;2023-04-09T06:10:41;97753.91;;;11.25;54.18
43701;BME280;58809;47.984;7.964;2023-04-09T06:13:42;97769.03;;;11.48;53.70
43701;BME280;58809;47.984;7.964;2023-04-09T06:16:44;97766.66;;;11.61;54.06
43701;BME280;58809;47.984;7.964;2023-04-09T06:19:46;97771.59;;;11.72;53.26
43701;BME280;58809;47.984;7.964;2023-04-09T06:22:47;97770.16;;;11.85;53.62
43701;BME280;58809;47.984;7.964;2023-04-09T06:25:49;97768.94;;;12.04;52.95
43701;BME280;58809;47.984;7.964;2023-04-09T06:28:50;97771.88;;;12.32;52.18
43701;BME280;58809;47.984;7.964;2023-04-09T06:31:52;97770.41;;;12.29;52.34
43701;BME280;58809;47.984;7.964;2023-04-09T06:34:54;97765.47;;;12.41;51.90
43701;BME280;58809;47.984;7.964;2023-04-09T06:37:55;97765.94;;;12.45;52.03
43701;BME280;58809;47.984;7.964;2023-04-09T06:40:57;97766.84;;;12.37;52.55
43701;BME280;58809;47.984;7.964;2023-04-09T06:43:59;97773.81;;;12.38;52.51
43701;BME280;58809;47.984;7.964;2023-04-09T06:47:00;97775.63;;;12.38;52.33
43701;BME280;58809;47.984;7.964;2023-04-09T06:50:02;97766.25;;;12.50;52.00
43701;BME280;58809;47.984;7.964;2023-04-09T06:53:05;97766.38;;;12.57;51.89
43701;BME280;58809;47.984;7.964;2023-04-09T06:56:07;97771.81;;;12.40;52.35
43701;BME280;58809;47.984;7.964;2023-04-09T06:59:08;97772.88;;;12.08;53.01
43701;BME280;58809;47.984;7.964;2023-04-09T07:02:10;97767.09;;;12.04;53.00
43701;BME280;58809;47.984;7.964;2023-04-09T07:05:12;97772.00;;;12.16;52.50
43701;BME280;58809;47.984;7.964;2023-04-09T07:08:14;97769.81;;;12.19;52.60
43701;BME280;58809;47.984;7.964;2023-04-09T07:11:15;97769.22;;;12.32;52.13
43701;BME280;58809;47.984;7.964;2023-04-09T07:14:17;97769.69;;;12.36;52.03
43701;BME280;58809;47.984;7.964;2023-04-09T07:17:19;97773.84;;;12.53;51.32
43701;BME280;58809;47.984;7.964;2023-04-09T07:20:20;97769.06;;;12.48;51.18
43701;BME280;58809;47.984;7.964;2023-04-09T07:23:22;97774.41;;;12.63;51.39
43701;BME280;58809;47.984;7.964;2023-04-09T07:26:23;97773.25;;;12.66;51.22
43701;BME280;58809;47.984;7.964;2023-04-09T07:29:25;97772.97;;;12.76;51.09
43701;BME280;58809;47.984;7.964;2023-04-09T07:32:28;97779.84;;;12.85;50.56
43701;BME280;58809;47.984;7.964;2023-04-09T07:35:29;97777.38;;;12.83;50.31
43701;BME280;58809;47.984;7.964;2023-04-09T07:38:32;97783.34;;;13.00;50.12
43701;BME280;58809;47.984;7.964;2023-04-09T07:41:33;97781.59;;;13.22;49.73
43701;BME280;58809;47.984;7.964;2023-04-09T07:44:35;97783.44;;;13.22;49.57
43701;BME280;58809;47.984;7.964;2023-04-09T07:47:37;97793.16;;;13.29;49.19
43701;BME280;58809;47.984;7.964;2023-04-09T07:50:39;97790.16;;;13.33;48.94
43701;BME280;58809;47.984;7.964;2023-04-09T07:53:41;97793.91;;;13.53;49.01
43701;BME280;58809;47.984;7.964;2023-04-09T07:56:42;97785.44;;;13.64;48.64
43701;BME280;58809;47.984;7.964;2023-04-09T07:59:44;97785.19;;;13.74;48.32
43701;BME280;58809;47.984;7.964;2023-04-09T08:02:45;97779.72;;;13.82;48.18
43701;BME280;58809;47.984;7.964;2023-04-09T08:05:47;97781.44;;;13.90;47.79
43701;BME280;58809;47.984;7.964;2023-04-09T08:08:49;97785.66;;;13.99;47.59
43701;BME280;58809;47.984;7.964;2023-04-09T08:11:51;97782.88;;;14.08;47.22
43701;BME280;58809;47.984;7.964;2023-04-09T08:14:53;97781.22;;;14.06;47.00
43701;BME280;58809;47.984;7.964;2023-04-09T08:17:55;97782.31;;;14.12;46.74
43701;BME280;58809;47.984;7.964;2023-04-09T08:20:57;97782.63;;;14.24;45.88
43701;BME280;58809;47.984;7.964;2023-04-09T08:23:58;97776.09;;;14.27;45.30
43701;BME280;58809;47.984;7.964;2023-04-09T08:27:04;97780.25;;;14.36;45.14
43701;BME280;58809;47.984;7.964;2023-04-09T08:30:06;97776.22;;;14.40;44.67
43701;BME280;58809;47.984;7.964;2023-04-09T08:33:08;97779.13;;;14.45;44.42
43701;BME280;58809;47.984;7.964;2023-04-09T08:36:10;97778.44;;;14.58;44.26
43701;BME280;58809;47.984;7.964;2023-04-09T08:39:12;97775.22;;;14.62;44.08
43701;BME280;58809;47.984;7.964;2023-04-09T08:42:13;97775.50;;;14.74;43.64
43701;BME280;58809;47.984;7.964;2023-04-09T08:45:16;97771.25;;;14.80;43.24
43701;BME280;58809;47.984;7.964;2023-04-09T08:48:18;97777.06;;;14.90;42.77
43701;BME280;58809;47.984;7.964;2023-04-09T08:51:22;97761.88;;;14.91;42.58
43701;BME280;58809;47.984;7.964;2023-04-09T08:54:24;97770.38;;;15.01;42.57
43701;BME280;58809;47.984;7.964;2023-04-09T08:57:27;97777.34;;;15.02;42.14
43701;BME280;58809;47.984;7.964;2023-04-09T09:00:28;97771.31;;;15.21;41.86
43701;BME280;58809;47.984;7.964;2023-04-09T09:03:30;97772.00;;;15.37;41.84
43701;BME280;58809;47.984;7.964;2023-04-09T09:06:33;97769.13;;;15.32;41.16
43701;BME280;58809;47.984;7.964;2023-04-09T09:09:52;97770.34;;;15.36;41.35
43701;BME280;58809;47.984;7.964;2023-04-09T09:12:54;97772.06;;;15.50;40.89
43701;BME280;58809;47.984;7.964;2023-04-09T09:16:13;97772.94;;;15.64;41.08
43701;BME280;58809;47.984;7.964;2023-04-09T09:22:26;97770.66;;;16.03;40.17
43701;BME280;58809;47.984;7.964;2023-04-09T09:25:27;97776.78;;;16.10;40.16
43701;BME280;58809;47.984;7.964;2023-04-09T09:28:33;97767.38;;;16.27;39.81
43701;BME280;58809;47.984;7.964;2023-04-09T09:31:45;97764.31;;;16.44;39.95
43701;BME280;58809;47.984;7.964;2023-04-09T09:35:05;97769.06;;;16.55;39.80
43701;BME280;58809;47.984;7.964;2023-04-09T09:38:07;97760.84;;;16.90;39.11
43701;BME280;58809;47.984;7.964;2023-04-09T09:41:16;97765.34;;;17.09;38.42
43701;BME280;58809;47.984;7.964;2023-04-09T09:44:31;97762.03;;;17.14;38.79
43701;BME280;58809;47.984;7.964;2023-04-09T09:47:33;97772.66;;;17.47;38.49
43701;BME280;58809;47.984;7.964;2023-04-09T09:50:37;97753.66;;;17.62;37.92
43701;BME280;58809;47.984;7.964;2023-04-09T09:53:42;97759.41;;;17.59;37.93
43701;BME280;58809;47.984;7.964;2023-04-09T09:56:49;97750.91;;;17.76;37.54
43701;BME280;58809;47.984;7.964;2023-04-09T09:59:55;97747.97;;;17.84;37.38
43701;BME280;58809;47.984;7.964;2023-04-09T10:03:13;97750.22;;;17.94;37.75
43701;BME280;58809;47.984;7.964;2023-04-09T10:06:16;97748.25;;;18.14;36.91
43701;BME280;58809;47.984;7.964;2023-04-09T10:09:20;97736.41;;;18.28;37.06
43701;BME280;58809;47.984;7.964;2023-04-09T10:12:22;97737.50;;;18.46;36.75
43701;BME280;58809;47.984;7.964;2023-04-09T10:15:27;97734.88;;;18.64;36.32
43701;BME280;58809;47.984;7.964;2023-04-09T10:18:30;97742.72;;;18.91;36.53
43701;BME280;58809;47.984;7.964;2023-04-09T10:21:49;97740.50;;;18.56;36.48
43701;BME280;58809;47.984;7.964;2023-04-09T10:24:54;97738.00;;;18.36;37.09
43701;BME280;58809;47.984;7.964;2023-04-09T10:28:00;97741.78;;;18.54;37.33
43701;BME280;58809;47.984;7.964;2023-04-09T10:31:04;97727.16;;;18.75;37.13
43701;BME280;58809;47.984;7.964;2023-04-09T10:34:05;97730.88;;;18.74;36.90
43701;BME280;58809;47.984;7.964;2023-04-09T10:37:21;97720.19;;;18.49;35.75
43701;BME280;58809;47.984;7.964;2023-04-09T10:40:23;97728.97;;;18.31;36.99
43701;BME280;58809;47.984;7.964;2023-04-09T10:43:24;97728.91;;;18.62;36.53
43701;BME280;58809;47.984;7.964;2023-04-09T10:46:33;97725.88;;;19.02;36.48
43701;BME280;58809;47.984;7.964;2023-04-09T10:49:36;97728.34;;;19.22;36.51
43701;BME280;58809;47.984;7.964;2023-04-09T10:52:39;97724.91;;;19.15;36.49
43701;BME280;58809;47.984;7.964;2023-04-09T10:55:47;97723.94;;;19.47;35.92
43701;BME280;58809;47.984;7.964;2023-04-09T10:58:50;97717.91;;;19.51;35.57
43701;BME280;58809;47.984;7.964;2023-04-09T11:01:52;97719.00;;;19.62;35.41
43701;BME280;58809;47.984;7.964;2023-04-09T11:08:31;97720.94;;;19.73;35.93
43701;BME280;58809;47.984;7.964;2023-04-09T11:11:33;97711.63;;;19.76;36.12
43701;BME280;58809;47.984;7.964;2023-04-09T11:14:36;97718.03;;;20.05;35.90
43701;BME280;58809;47.984;7.964;2023-04-09T11:17:38;97714.78;;;20.15;35.52
43701;BME280;58809;47.984;7.964;2023-04-09T11:20:39;97713.38;;;20.12;35.47
43701;BME280;58809;47.984;7.964;2023-04-09T11:23:50;97709.72;;;19.95;34.33
43701;BME280;58809;47.984;7.964;2023-04-09T11:26:53;97703.56;;;19.57;35.29
43701;BME280;58809;47.984;7.964;2023-04-09T11:29:55;97703.16;;;19.72;35.04
43701;BME280;58809;47.984;7.964;2023-04-09T11:32:56;97704.66;;;19.87;35.48
43701;BME280;58809;47.984;7.964;2023-04-09T11:35:58;97694.63;;;19.94;35.48
43701;BME280;58809;47.984;7.964;2023-04-09T11:39:01;97686.38;;;20.07;35.05
43701;BME280;58809;47.984;7.964;2023-04-09T11:42:02;97696.44;;;20.12;34.82
43701;BME280;58809;47.984;7.964;2023-04-09T11:45:04;97689.97;;;19.89;35.08
43701;BME280;58809;47.984;7.964;2023-04-09T11:48:06;97697.25;;;20.12;35.16
43701;BME280;58809;47.984;7.964;2023-04-09T11:51:08;97686.28;;;20.26;34.73
43701;BME280;58809;47.984;7.964;2023-04-09T11:54:10;97684.38;;;20.03;34.59
43701;BME280;58809;47.984;7.964;2023-04-09T11:57:12;97686.50;;;20.12;34.40
43701;BME280;58809;47.984;7.964;2023-04-09T12:00:15;97688.38;;;20.12;34.75
43701;BME280;58809;47.984;7.964;2023-04-09T12:03:17;97693.34;;;20.50;34.76
43701;BME280;58809;47.984;7.964;2023-04-09T12:06:21;97679.72;;;20.10;34.68
43701;BME280;58809;47.984;7.964;2023-04-09T12:09:25;97681.41;;;20.23;34.60
43701;BME280;58809;47.984;7.964;2023-04-09T12:12:27;97672.97;;;20.31;34.25
43701;BME280;58809;47.984;7.964;2023-04-09T12:15:33;97675.19;;;20.22;34.47
43701;BME280;58809;47.984;7.964;2023-04-09T12:18:35;97669.72;;;20.52;34.17
43701;BME280;58809;47.984;7.964;2023-04-09T12:24:52;97666.13;;;20.82;33.43
43701;BME280;58809;47.984;7.964;2023-04-09T12:27:55;97664.25;;;20.94;33.22
43701;BME280;58809;47.984;7.964;2023-04-09T12:30:57;97662.47;;;21.12;32.94
43701;BME280;58809;47.984;7.964;2023-04-09T12:33:59;97662.38;;;21.35;33.71
43701;BME280;58809;47.984;7.964;2023-04-09T12:37:01;97656.84;;;21.54;33.46
43701;BME280;58809;47.984;7.964;2023-04-09T12:40:03;97660.13;;;21.56;33.42
43701;BME280;58809;47.984;7.964;2023-04-09T12:43:04;97644.25;;;21.31;32.82
43701;BME280;58809;47.984;7.964;2023-04-09T12:46:06;97645.41;;;21.47;33.50
43701;BME280;58809;47.984;7.964;2023-04-09T12:49:08;97645.56;;;21.69;33.83
43701;BME280;58809;47.984;7.964;2023-04-09T12:52:09;97637.16;;;21.25;33.17
43701;BME280;58809;47.984;7.964;2023-04-09T12:55:12;97635.97;;;20.68;32.90
43701;BME280;58809;47.984;7.964;2023-04-09T12:58:14;97640.28;;;20.81;33.33
43701;BME280;58809;47.984;7.964;2023-04-09T13:01:16;97638.13;;;21.07;33.23
43701;BME280;58809;47.984;7.964;2023-04-09T13:04:18;97634.72;;;21.52;33.23
43701;BME280;58809;47.984;7.964;2023-04-09T13:07:19;97632.44;;;21.89;32.98
43701;BME280;58809;47.984;7.964;2023-04-09T13:10:21;97630.97;;;22.16;33.03
43701;BME280;58809;47.984;7.964;2023-04-09T13:13:22;97635.78;;;22.14;32.95
43701;BME280;58809;47.984;7.964;2023-04-09T13:16:25;97642.22;;;22.13;32.90
43701;BME280;58809;47.984;7.964;2023-04-09T13:19:27;97623.91;;;22.26;32.76
43701;BME280;58809;47.984;7.964;2023-04-09T13:22:28;97620.19;;;22.16;32.73
43701;BME280;58809;47.984;7.964;2023-04-09T13:25:30;97622.13;;;21.69;32.28
43701;BME280;58809;47.984;7.964;2023-04-09T13:28:31;97623.00;;;21.58;32.86
43701;BME280;58809;47.984;7.964;2023-04-09T13:31:36;97624.25;;;22.01;32.81
43701;BME280;58809;47.984;7.964;2023-04-09T13:34:38;97623.88;;;22.09;32.17
43701;BME280;58809;47.984;7.964;2023-04-09T13:37:40;97624.88;;;22.37;32.56
43701;BME280;58809;47.984;7.964;2023-04-09T13:40:43;97611.19;;;22.61;32.07
43701;BME280;58809;47.984;7.964;2023-04-09T13:43:44;97615.72;;;22.77;32.36
43701;BME280;58809;47.984;7.964;2023-04-09T13:46:46;97612.78;;;22.79;32.10
43701;BME280;58809;47.984;7.964;2023-04-09T13:49:47;97610.91;;;22.79;32.04
43701;BME280;58809;47.984;7.964;2023-04-09T13:52:49;97602.63;;;22.47;31.94
43701;BME280;58809;47.984;7.964;2023-04-09T13:55:50;97605.41;;;22.52;32.46
43701;BME280;58809;47.984;7.964;2023-04-09T13:58:52;97595.31;;;22.64;31.93
43701;BME280;58809;47.984;7.964;2023-04-09T14:01:54;97586.56;;;22.35;31.86
43701;BME280;58809;47.984;7.964;2023-04-09T14:04:56;97587.44;;;22.41;31.76
43701;BME280;58809;47.984;7.964;2023-04-09T14:07:57;97585.81;;;22.23;32.24
43701;BME280;58809;47.984;7.964;2023-04-09T14:10:59;97583.91;;;22.23;31.91
43701;BME280;58809;47.984;7.964;2023-04-09T14:14:01;97575.34;;;22.43;31.94
43701;BME280;58809;47.984;7.964;2023-04-09T14:17:02;97580.19;;;22.63;31.58
43701;BME280;58809;47.984;7.964;2023-04-09T14:20:04;97587.09;;;22.76;31.78
43701;BME280;58809;47.984;7.964;2023-04-09T14:23:06;97584.53;;;22.86;31.27
43701;BME280;58809;47.984;7.964;2023-04-09T14:26:07;97584.53;;;22.86;31.28
43701;BME280;58809;47.984;7.964;2023-04-09T14:29:09;97578.19;;;22.76;31.47
43701;BME280;58809;47.984;7.964;2023-04-09T14:32:11;97574.41;;;22.55;31.77
43701;BME280;58809;47.984;7.964;2023-04-09T14:35:12;97578.28;;;22.42;31.63
43701;BME280;58809;47.984;7.964;2023-04-09T14:38:14;97574.63;;;22.70;31.34
43701;BME280;58809;47.984;7.964;2023-04-09T14:41:15;97575.81;;;22.79;31.18
43701;BME280;58809;47.984;7.964;2023-04-09T14:44:17;97575.69;;;22.69;31.21
43701;BME280;58809;47.984;7.964;2023-04-09T14:47:18;97574.06;;;22.90;30.69
43701;BME280;58809;47.984;7.964;2023-04-09T14:50:20;97570.84;;;22.71;30.99
43701;BME280;58809;47.984;7.964;2023-04-09T14:53:21;97575.00;;;23.01;30.62
43701;BME280;58809;47.984;7.964;2023-04-09T14:56:23;97569.88;;;23.21;30.41
43701;BME280;58809;47.984;7.964;2023-04-09T14:59:28;97574.63;;;23.14;29.95
43701;BME280;58809;47.984;7.964;2023-04-09T15:02:29;97572.66;;;23.04;30.31
43701;BME280;58809;47.984;7.964;2023-04-09T15:05:31;97580.06;;;23.41;30.23
43701;BME280;58809;47.984;7.964;2023-04-09T15:08:32;97583.72;;;23.30;29.93
43701;BME280;58809;47.984;7.964;2023-04-09T15:11:34;97572.19;;;22.91;30.20
43701;BME280;58809;47.984;7.964;2023-04-09T15:14:35;97571.63;;;22.88;30.44
43701;BME280;58809;47.984;7.964;2023-04-09T15:17:37;97574.75;;;23.02;29.86
43701;BME280;58809;47.984;7.964;2023-04-09T15:20:39;97562.72;;;23.10;30.36
43701;BME280;58809;47.984;7.964;2023-04-09T15:23:40;97565.75;;;22.97;30.61
43701;BME280;58809;47.984;7.964;2023-04-09T15:26:42;97571.16;;;23.19;30.52
43701;BME280;58809;47.984;7.964;2023-04-09T15:29:43;97560.63;;;23.72;30.05
43701;BME280;58809;47.984;7.964;2023-04-09T15:32:45;97561.59;;;23.88;29.75
43701;BME280;58809;47.984;7.964;2023-04-09T15:35:46;97564.38;;;23.98;30.17
43701;BME280;58809;47.984;7.964;2023-04-09T15:38:52;97568.50;;;24.06;30.21
43701;BME280;58809;47.984;7.964;2023-04-09T15:41:54;97563.25;;;23.89;30.48
43701;BME280;58809;47.984;7.964;2023-04-09T15:44:59;97563.00;;;23.95;30.11
43701;BME280;58809;47.984;7.964;2023-04-09T15:48:00;97561.69;;;24.40;29.96
43701;BME280;58809;47.984;7.964;2023-04-09T15:51:02;97556.56;;;29.17;26.46
43701;BME280;58809;47.984;7.964;2023-04-09T15:54:05;97561.97;;;32.50;23.49
43701;BME280;58809;47.984;7.964;2023-04-09T15:57:06;97558.09;;;34.87;21.43
43701;BME280;58809;47.984;7.964;2023-04-09T16:00:08;97553.53;;;37.53;19.70
43701;BME280;58809;47.984;7.964;2023-04-09T16:03:11;97561.25;;;38.76;18.93
43701;BME280;58809;47.984;7.964;2023-04-09T16:06:13;97563.09;;;38.72;18.50
43701;BME280;58809;47.984;7.964;2023-04-09T16:09:14;97559.91;;;39.21;18.02
43701;BME280;58809;47.984;7.964;2023-04-09T16:12:16;97557.44;;;39.00;18.27
43701;BME280;58809;47.984;7.964;2023-04-09T16:15:17;97557.69;;;38.16;18.62
43701;BME280;58809;47.984;7.964;2023-04-09T16:18:19;97556.56;;;38.48;18.41
43701;BME280;58809;47.984;7.964;2023-04-09T16:21:21;97563.94;;;38.12;18.69
43701;BME280;58809;47.984;7.964;2023-04-09T16:24:22;97562.25;;;38.24;18.25
43701;BME280;58809;47.984;7.964;2023-04-09T16:27:24;97564.53;;;37.37;18.71
43701;BME280;58809;47.984;7.964;2023-04-09T16:30:25;97564.31;;;37.30;18.39
43701;BME280;58809;47.984;7.964;2023-04-09T16:33:27;97562.28;;;36.77;18.74